Time;durP1;ratioP1;P1;durP2;ratioP2;P2;SDS_P1;SDS_P2;PMS_P1;PMS_P2;Temp;Humidity;BMP_temperature;BMP_pressure;BME280_temperature;BME280_humidity;BME280_pressure;Samples;Min_cycle;Max_cycle;Signal;HPM_P1;HPM_P2
2021/08/17 13:12:42;;;;;;;0.00;0.00;;;45.90;30.00;;;;;;5420912;23;20759;-75
2021/08/17 13:15:10;;;;;;;0.00;0.00;;;45.80;30.00;;;;;;4896883;29;20049;-79
2021/08/17 13:17:36;;;;;;;0.10;0.10;;;45.80;30.00;;;;;;4881823;29;20025;-78
2021/08/17 13:20:02;;;;;;;0.10;0.10;;;45.90;30.00;;;;;;4896193;29;20383;-76
2021/08/17 13:22:28;;;;;;;0.10;0.10;;;46.10;30.00;;;;;;4880248;29;20036;-77
2021/08/17 13:24:54;;;;;;;0.10;0.10;;;46.10;29.90;;;;;;4879923;29;20033;-77
2021/08/17 13:27:20;;;;;;;0.00;0.00;;;46.00;30.00;;;;;;4879861;29;20033;-79
2021/08/17 13:29:46;;;;;;;0.10;0.10;;;45.90;29.90;;;;;;4879679;29;20483;-78
2021/08/17 13:32:12;;;;;;;0.10;0.10;;;45.80;29.70;;;;;;4880244;29;20059;-78
2021/08/17 13:34:38;;;;;;;0.03;0.03;;;45.70;29.70;;;;;;4880443;29;20048;-78
2021/08/17 13:37:07;;;;;;;0.00;0.00;;;45.70;29.80;;;;;;4880236;29;20100;-78
2021/08/17 13:39:34;;;;;;;0.08;0.08;;;45.80;29.90;;;;;;4879901;29;20081;-77
2021/08/17 13:42:00;;;;;;;0.00;0.00;;;45.60;29.80;;;;;;4879067;29;20147;-78
2021/08/17 13:44:26;;;;;;;0.05;0.05;;;45.50;29.80;;;;;;4876380;29;20124;-77
2021/08/17 13:46:52;;;;;;;0.10;0.10;;;45.30;29.80;;;;;;4861428;29;20187;-77
2021/08/17 13:49:18;;;;;;;0.00;0.00;;;45.10;29.90;;;;;;4861774;29;20084;-78
2021/08/17 13:51:44;;;;;;;0.00;0.00;;;44.90;29.80;;;;;;4861115;29;20033;-78
2021/08/17 13:54:10;;;;;;;0.05;0.05;;;45.00;30.00;;;;;;4861106;29;20033;-77
2021/08/17 13:56:36;;;;;;;0.00;0.00;;;45.10;30.00;;;;;;4860894;29;20099;-77
2021/08/17 13:59:02;;;;;;;0.00;0.00;;;45.40;29.90;;;;;;4861719;29;20033;-77
2021/08/17 14:01:28;;;;;;;0.00;0.00;;;45.60;29.90;;;;;;4869947;29;20025;-77
2021/08/17 14:03:55;;;;;;;0.05;0.05;;;45.70;29.80;;;;;;4879266;29;20044;-82
2021/08/17 14:06:21;;;;;;;0.00;0.00;;;45.40;29.80;;;;;;4862136;29;20037;-81
2021/08/17 14:08:47;;;;;;;0.03;0.03;;;45.10;29.80;;;;;;4879377;29;20089;-78
2021/08/17 14:11:14;;;;;;;0.10;0.10;;;45.00;29.80;;;;;;4879565;29;20065;-79
2021/08/17 14:14:24;;;;;;;0.10;0.10;;;44.80;29.70;;;;;;4899990;23;20071;-74
2021/08/17 14:16:50;;;;;;;0.10;0.10;;;44.80;29.70;;;;;;4879507;29;20103;-74
2021/08/17 14:19:15;;;;;;;0.10;0.10;;;44.80;29.90;;;;;;4881608;29;20080;-74
2021/08/17 14:21:41;;;;;;;0.00;0.00;;;44.70;29.70;;;;;;4897437;29;20096;-73
2021/08/17 14:24:08;;;;;;;0.10;0.10;;;44.50;29.80;;;;;;4896346;29;20040;-76
2021/08/17 14:26:37;;;;;;;0.15;0.00;;;44.30;29.90;;;;;;4879196;29;20389;-74
2021/08/17 14:29:04;;;;;;;0.00;0.00;;;44.10;30.00;;;;;;4879070;29;20029;-73
2021/08/17 14:31:30;;;;;;;0.00;0.00;;;43.90;30.10;;;;;;4879321;29;20046;-72
2021/08/17 14:33:56;;;;;;;0.00;0.00;;;43.90;30.10;;;;;;4879795;29;20041;-73
2021/08/17 14:36:22;;;;;;;0.20;0.00;;;43.80;30.10;;;;;;4879334;29;20033;-73
2021/08/17 14:38:48;;;;;;;0.00;0.00;;;43.70;30.20;;;;;;4879671;29;20029;-73
2021/08/17 14:41:15;;;;;;;0.00;0.00;;;43.60;30.20;;;;;;4879425;29;20031;-73
2021/08/17 14:43:40;;;;;;;0.00;0.00;;;43.40;30.40;;;;;;4885831;29;20043;-74
2021/08/17 14:46:06;;;;;;;0.00;0.00;;;43.30;30.50;;;;;;4897765;29;20111;-72
2021/08/17 14:48:32;;;;;;;0.00;0.00;;;43.20;30.60;;;;;;4897479;29;20115;-72
2021/08/17 14:50:58;;;;;;;0.00;0.00;;;43.10;30.60;;;;;;4897440;29;20056;-73
2021/08/17 14:53:24;;;;;;;0.00;0.00;;;43.10;30.70;;;;;;4896789;29;20440;-72
2021/08/17 14:55:50;;;;;;;0.00;0.00;;;42.90;30.70;;;;;;4891626;29;20401;-72
2021/08/17 14:58:16;;;;;;;0.08;0.00;;;42.80;30.70;;;;;;4862441;29;20052;-72
2021/08/17 15:00:43;;;;;;;0.00;0.00;;;42.80;30.60;;;;;;4879161;29;20033;-72
2021/08/17 15:03:09;;;;;;;0.00;0.00;;;42.70;30.70;;;;;;4876639;29;20033;-76
2021/08/17 15:05:35;;;;;;;0.00;0.00;;;42.50;30.80;;;;;;4860618;29;20029;-74
2021/08/17 15:08:01;;;;;;;0.00;0.00;;;42.40;30.70;;;;;;4870535;29;20422;-72
2021/08/17 15:10:27;;;;;;;0.00;0.00;;;42.30;31.00;;;;;;4876784;29;20033;-73
2021/08/17 15:12:52;;;;;;;0.00;0.00;;;42.20;31.10;;;;;;4873440;29;20064;-72
2021/08/17 15:15:19;;;;;;;0.00;0.00;;;42.10;31.10;;;;;;4861822;29;20040;-72
2021/08/17 15:17:51;;;;;;;0.00;0.00;;;42.00;31.30;;;;;;4877830;29;20101;-77
2021/08/17 15:20:19;;;;;;;0.00;0.00;;;42.00;31.10;;;;;;4861586;29;20495;-75
2021/08/17 15:22:48;;;;;;;0.00;0.00;;;41.70;31.20;;;;;;4878449;29;20368;-74
2021/08/17 15:25:17;;;;;;;0.00;0.00;;;41.30;31.20;;;;;;4878340;29;20117;-75
2021/08/17 15:27:44;;;;;;;0.00;0.00;;;41.10;31.30;;;;;;4877850;29;20088;-76
2021/08/17 15:30:10;;;;;;;0.00;0.00;;;40.90;31.40;;;;;;4878573;29;20018;-76
2021/08/17 15:32:38;;;;;;;0.00;0.00;;;40.60;31.40;;;;;;4879898;29;20101;-72
2021/08/17 15:35:05;;;;;;;0.00;0.00;;;40.50;31.70;;;;;;4881745;29;20036;-74
2021/08/17 15:37:31;;;;;;;0.00;0.00;;;40.30;31.70;;;;;;4881999;29;20381;-73
2021/08/17 15:39:58;;;;;;;0.00;0.00;;;40.20;31.90;;;;;;4882443;29;20108;-73
2021/08/17 15:42:26;;;;;;;0.00;0.00;;;40.10;32.10;;;;;;4880451;29;20059;-74
2021/08/17 15:44:52;;;;;;;0.00;0.00;;;40.00;32.20;;;;;;4881804;29;20037;-73
2021/08/17 15:47:18;;;;;;;0.00;0.00;;;39.90;32.20;;;;;;4880260;29;20033;-73
2021/08/17 15:49:44;;;;;;;0.00;0.00;;;39.70;32.30;;;;;;4881422;29;20033;-73
2021/08/17 15:52:12;;;;;;;0.00;0.00;;;39.60;32.50;;;;;;4882155;29;20064;-73
2021/08/17 15:54:39;;;;;;;0.00;0.00;;;39.40;32.50;;;;;;4881833;29;20109;-73
2021/08/17 15:57:07;;;;;;;0.00;0.00;;;39.20;32.60;;;;;;4882543;29;20438;-76
2021/08/17 15:59:38;;;;;;;0.00;0.00;;;38.90;32.90;;;;;;4864992;29;20115;-73
2021/08/17 16:02:07;;;;;;;0.00;0.00;;;38.70;33.10;;;;;;4882466;29;20025;-73
2021/08/17 16:04:33;;;;;;;0.00;0.00;;;38.50;33.20;;;;;;4882240;29;20097;-73
2021/08/17 16:06:59;;;;;;;0.00;0.00;;;38.30;33.30;;;;;;4882606;29;20033;-73
2021/08/17 16:09:25;;;;;;;0.00;0.00;;;38.10;33.60;;;;;;4882354;29;20029;-72
2021/08/17 16:11:50;;;;;;;0.00;0.00;;;37.90;33.80;;;;;;4882930;29;20033;-73
2021/08/17 16:14:16;;;;;;;0.00;0.00;;;37.70;34.00;;;;;;4882675;29;20121;-75
2021/08/17 16:16:42;;;;;;;0.00;0.00;;;37.50;34.30;;;;;;4882436;29;20125;-73
2021/08/17 16:19:08;;;;;;;0.00;0.00;;;37.20;34.40;;;;;;4865784;29;20497;-72
2021/08/17 16:21:34;;;;;;;0.00;0.00;;;37.00;34.60;;;;;;4865912;29;20107;-72
2021/08/17 16:24:02;;;;;;;0.00;0.00;;;36.90;35.00;;;;;;4882213;29;20499;-73
2021/08/17 16:26:27;;;;;;;0.00;0.00;;;36.70;35.10;;;;;;4882107;29;20139;-73
2021/08/17 16:28:53;;;;;;;0.00;0.00;;;36.50;35.30;;;;;;4882300;29;20100;-72
2021/08/17 16:31:19;;;;;;;0.00;0.00;;;36.30;35.60;;;;;;4865120;29;20029;-72
2021/08/17 16:33:45;;;;;;;0.00;0.00;;;36.00;35.80;;;;;;4881856;29;20373;-72
2021/08/17 16:36:12;;;;;;;0.00;0.00;;;35.80;36.10;;;;;;4881570;29;20393;-74
2021/08/17 16:38:38;;;;;;;0.00;0.00;;;35.50;36.30;;;;;;4882289;29;20035;-73
2021/08/17 16:41:04;;;;;;;0.00;0.00;;;35.30;36.50;;;;;;4882023;29;20108;-74
2021/08/17 16:43:31;;;;;;;0.00;0.00;;;35.00;36.70;;;;;;4882087;29;20041;-72
2021/08/17 16:45:58;;;;;;;0.00;0.00;;;34.80;37.10;;;;;;4883249;29;20116;-72
2021/08/17 16:48:23;;;;;;;0.00;0.00;;;34.50;37.40;;;;;;4881555;29;20493;-72
2021/08/17 16:50:49;;;;;;;0.00;0.00;;;34.30;37.80;;;;;;4881664;29;20033;-74
2021/08/17 16:53:16;;;;;;;0.00;0.00;;;34.00;38.00;;;;;;4881612;29;20115;-73
2021/08/17 16:55:41;;;;;;;0.00;0.00;;;33.70;38.30;;;;;;4881318;29;20069;-74
2021/08/17 16:58:07;;;;;;;0.15;0.00;;;33.40;38.70;;;;;;4881668;29;20060;-73
2021/08/17 17:00:33;;;;;;;0.00;0.00;;;33.10;38.90;;;;;;4881319;29;20431;-75
2021/08/17 17:02:59;;;;;;;0.00;0.00;;;32.90;39.30;;;;;;4881246;29;20037;-79
2021/08/17 17:05:25;;;;;;;0.00;0.00;;;32.60;39.50;;;;;;4881511;29;20029;-74
2021/08/17 17:07:51;;;;;;;0.00;0.00;;;32.40;39.80;;;;;;4881892;29;20139;-75
2021/08/17 17:10:17;;;;;;;0.00;0.00;;;32.30;40.30;;;;;;4881331;29;20077;-75
2021/08/17 17:12:43;;;;;;;0.00;0.00;;;32.10;40.50;;;;;;4881312;29;20056;-72
2021/08/17 17:15:13;;;;;;;0.00;0.00;;;31.90;40.80;;;;;;4881304;29;20025;-75
2021/08/17 17:17:39;;;;;;;0.00;0.00;;;31.80;41.10;;;;;;4881377;29;20025;-75
2021/08/17 17:20:06;;;;;;;0.15;0.10;;;31.60;41.20;;;;;;4881014;29;20085;-74
2021/08/17 17:22:32;;;;;;;1.75;0.75;;;31.50;41.40;;;;;;4881072;29;20449;-75
2021/08/17 17:24:58;;;;;;;4.28;2.55;;;31.40;41.60;;;;;;4881259;29;20116;-73
2021/08/17 17:27:25;;;;;;;15.00;5.93;;;31.30;41.90;;;;;;4881044;29;20029;-74
2021/08/17 17:29:51;;;;;;;23.20;13.55;;;31.20;42.00;;;;;;4881359;29;20489;-73
2021/08/17 17:32:17;;;;;;;31.05;14.13;;;31.10;42.20;;;;;;4864894;29;20112;-76
2021/08/17 17:34:43;;;;;;;30.27;14.05;;;31.00;43.00;;;;;;4880794;29;20070;-74
2021/08/17 17:37:09;;;;;;;21.77;11.77;;;30.90;42.50;;;;;;4881089;29;20052;-71
2021/08/17 17:39:34;;;;;;;30.15;13.30;;;30.80;42.70;;;;;;4880613;29;20040;-73
2021/08/17 17:42:00;;;;;;;38.00;12.98;;;30.70;42.70;;;;;;4881132;29;20033;-73
2021/08/17 17:44:26;;;;;;;27.75;13.07;;;30.70;42.80;;;;;;4880523;29;20036;-73
2021/08/17 17:46:52;;;;;;;35.90;14.60;;;30.60;42.90;;;;;;4879975;29;20125;-74
2021/08/17 17:49:18;;;;;;;31.73;13.55;;;30.50;42.90;;;;;;4880820;29;20029;-74
2021/08/17 17:51:43;;;;;;;28.42;11.93;;;30.50;43.20;;;;;;4880690;29;20060;-72
2021/08/17 17:54:09;;;;;;;21.50;12.80;;;30.40;43.30;;;;;;4864701;29;20503;-73
2021/08/17 17:56:35;;;;;;;34.35;14.25;;;30.30;43.30;;;;;;4879933;29;20036;-73
2021/08/17 17:59:00;;;;;;;29.67;14.40;;;30.20;43.40;;;;;;4880722;29;20061;-73
2021/08/17 18:01:30;;;;;;;36.78;17.45;;;30.20;43.60;;;;;;4881639;29;20035;-74
2021/08/17 18:04:00;;;;;;;34.60;15.82;;;30.10;43.70;;;;;;4880596;29;20029;-72
2021/08/17 18:06:26;;;;;;;29.73;15.50;;;30.00;43.80;;;;;;4880726;29;20043;-73
2021/08/17 18:08:52;;;;;;;31.42;15.15;;;30.00;44.00;;;;;;4880821;29;20441;-73
2021/08/17 18:11:19;;;;;;;23.65;14.80;;;29.90;44.10;;;;;;4863778;29;20064;-73
2021/08/17 18:13:45;;;;;;;30.85;17.30;;;29.80;44.00;;;;;;4880894;29;20140;-73
2021/08/17 18:16:11;;;;;;;30.90;14.43;;;29.80;44.20;;;;;;4880307;29;20029;-73
2021/08/17 18:18:37;;;;;;;25.13;13.40;;;29.80;44.30;;;;;;4880029;29;20033;-73
2021/08/17 18:21:03;;;;;;;29.08;12.73;;;29.70;44.30;;;;;;4880651;29;20025;-73
2021/08/17 18:23:29;;;;;;;30.67;12.38;;;29.60;44.30;;;;;;4880491;29;20036;-72
2021/08/17 18:25:56;;;;;;;22.73;10.38;;;29.60;44.40;;;;;;4879986;29;20037;-72
2021/08/17 18:28:23;;;;;;;27.13;11.02;;;29.60;44.50;;;;;;4880180;29;20124;-74
2021/08/17 18:30:50;;;;;;;28.48;10.63;;;29.60;44.60;;;;;;4880411;29;20589;-71
2021/08/17 18:33:18;;;;;;;20.35;10.82;;;29.50;44.80;;;;;;4880011;29;20393;-73
2021/08/17 18:35:44;;;;;;;21.95;10.93;;;29.50;44.80;;;;;;4880201;29;20025;-71
2021/08/17 18:38:09;;;;;;;22.10;11.95;;;29.40;44.80;;;;;;4880068;29;20384;-72
2021/08/17 18:40:36;;;;;;;19.10;10.75;;;29.50;44.90;;;;;;4880112;29;20116;-72
2021/08/17 18:43:02;;;;;;;20.83;9.85;;;29.40;44.90;;;;;;4880121;29;20033;-72
2021/08/17 18:45:28;;;;;;;19.85;9.60;;;29.40;44.90;;;;;;4879992;29;20032;-72
2021/08/17 18:47:55;;;;;;;21.40;10.45;;;29.30;45.00;;;;;;4880329;29;20033;-71
2021/08/17 18:50:21;;;;;;;14.88;10.23;;;29.30;45.00;;;;;;4880239;29;20036;-72
2021/08/17 18:52:47;;;;;;;21.73;12.07;;;29.30;45.20;;;;;;4879864;29;20037;-71
2021/08/17 18:55:13;;;;;;;18.65;12.57;;;29.20;45.20;;;;;;4879784;29;20037;-71
2021/08/17 18:57:39;;;;;;;25.13;15.88;;;29.20;45.30;;;;;;4879714;29;20029;-72
2021/08/17 19:00:09;;;;;;;36.22;20.88;;;29.10;45.40;;;;;;4863210;29;20033;-71
2021/08/17 19:02:35;;;;;;;32.33;20.08;;;29.10;45.80;;;;;;4880104;29;20040;-71
2021/08/17 19:05:01;;;;;;;28.08;18.08;;;29.00;46.00;;;;;;4879911;29;20077;-73
2021/08/17 19:07:27;;;;;;;25.55;16.67;;;29.00;46.00;;;;;;4881984;29;20386;-72
2021/08/17 19:09:53;;;;;;;22.98;14.95;;;28.90;46.00;;;;;;4885849;29;20378;-71
2021/08/17 19:12:21;;;;;;;31.27;16.70;;;28.90;46.20;;;;;;4886220;29;20033;-72
2021/08/17 19:14:50;;;;;;;26.08;16.70;;;28.80;46.30;;;;;;4885965;29;20033;-71
2021/08/17 19:17:19;;;;;;;29.77;17.95;;;28.80;46.40;;;;;;4885866;29;20030;-72
2021/08/17 19:19:46;;;;;;;34.95;20.73;;;28.70;46.30;;;;;;4886070;29;20033;-71
2021/08/17 19:22:13;;;;;;;38.15;22.92;;;28.70;46.50;;;;;;4885773;29;20040;-71
2021/08/17 19:24:42;;;;;;;46.08;26.40;;;28.60;46.60;;;;;;4885637;29;20052;-71
2021/08/17 19:27:15;;;;;;;47.13;27.52;;;28.60;46.90;;;;;;4886256;29;20029;-75
2021/08/17 19:29:42;;;;;;;48.40;29.38;;;28.60;47.10;;;;;;4885946;29;20077;-71
2021/08/17 19:32:09;;;;;;;52.70;29.88;;;28.50;47.20;;;;;;4885601;29;20037;-72
2021/08/17 19:34:35;;;;;;;49.85;30.75;;;28.40;47.30;;;;;;4885840;29;20119;-71
2021/08/17 19:37:02;;;;;;;44.00;26.63;;;28.40;47.60;;;;;;4885619;29;20046;-72
2021/08/17 19:39:32;;;;;;;54.80;31.75;;;28.40;47.60;;;;;;4885880;29;20033;-72
2021/08/17 19:41:57;;;;;;;56.53;31.80;;;28.30;47.90;;;;;;4885837;29;20032;-71
2021/08/17 19:44:23;;;;;;;53.08;31.65;;;28.30;48.00;;;;;;4868703;29;20419;-71
2021/08/17 19:46:50;;;;;;;46.00;28.02;;;28.20;48.10;;;;;;4885444;29;20040;-71
2021/08/17 19:49:16;;;;;;;47.00;26.83;;;28.20;48.20;;;;;;4885528;29;20025;-71
2021/08/17 19:51:42;;;;;;;45.65;25.40;;;28.10;48.20;;;;;;4885189;29;20041;-71
2021/08/17 19:54:09;;;;;;;49.28;28.30;;;28.10;48.20;;;;;;4885365;29;20044;-71
2021/08/17 19:56:36;;;;;;;56.70;34.28;;;28.00;48.30;;;;;;4885317;29;20182;-71
2021/08/17 19:59:02;;;;;;;64.88;37.25;;;28.00;48.50;;;;;;4885636;29;20029;-71
2021/08/17 20:01:29;;;;;;;63.97;36.72;;;27.90;48.70;;;;;;4868653;29;20029;-71
2021/08/17 20:03:56;;;;;;;63.70;35.85;;;27.80;48.70;;;;;;4885264;29;20028;-70
2021/08/17 20:06:22;;;;;;;63.92;37.17;;;27.80;48.90;;;;;;4885448;29;20070;-72
2021/08/17 20:08:48;;;;;;;58.88;34.60;;;27.70;49.00;;;;;;4885494;29;20036;-71
2021/08/17 20:11:14;;;;;;;61.95;35.85;;;27.70;49.20;;;;;;4885285;29;20040;-71
2021/08/17 20:13:41;;;;;;;68.82;38.22;;;27.60;49.30;;;;;;4885726;29;20057;-71
2021/08/17 20:16:11;;;;;;;57.08;32.92;;;27.60;49.50;;;;;;4877736;29;20508;-70
2021/08/17 20:18:37;;;;;;;58.92;35.17;;;27.50;49.50;;;;;;4866826;29;20029;-73
2021/08/17 20:21:03;;;;;;;57.88;34.78;;;27.50;49.70;;;;;;4882102;29;20113;-71
2021/08/17 20:23:29;;;;;;;55.78;33.67;;;27.50;49.90;;;;;;4882429;29;20467;-71
2021/08/17 20:25:55;;;;;;;64.40;34.67;;;27.40;50.00;;;;;;4882198;29;20029;-71
2021/08/17 20:28:21;;;;;;;53.22;30.60;;;27.40;50.30;;;;;;4882521;29;20462;-71
2021/08/17 20:30:48;;;;;;;57.53;34.15;;;27.30;50.30;;;;;;4882233;29;20374;-71
2021/08/17 20:33:15;;;;;;;53.95;33.95;;;27.30;50.50;;;;;;4865492;29;20492;-72
2021/08/17 20:35:41;;;;;;;62.10;31.67;;;27.20;50.70;;;;;;4882164;29;20041;-71
2021/08/17 20:38:08;;;;;;;51.58;32.33;;;27.20;50.80;;;;;;4881842;29;20408;-72
2021/08/17 20:40:34;;;;;;;52.63;32.33;;;27.10;50.90;;;;;;4882564;29;20036;-71
2021/08/17 20:43:01;;;;;;;50.25;29.13;;;27.10;51.00;;;;;;4881810;29;20048;-71
2021/08/17 20:45:27;;;;;;;46.60;27.35;;;27.10;51.00;;;;;;4882248;29;20040;-71
2021/08/17 20:47:53;;;;;;;46.17;28.83;;;27.10;51.00;;;;;;4882215;29;20407;-72
2021/08/17 20:50:19;;;;;;;50.83;28.98;;;27.10;51.10;;;;;;4881906;29;20029;-72
2021/08/17 20:52:47;;;;;;;39.42;23.30;;;27.00;51.10;;;;;;4881819;29;20033;-72
2021/08/17 20:55:13;;;;;;;41.08;23.17;;;27.00;51.20;;;;;;4882050;29;20463;-71
2021/08/17 20:57:40;;;;;;;37.60;21.38;;;27.00;51.40;;;;;;4881755;29;20108;-72
2021/08/17 21:00:07;;;;;;;30.38;17.92;;;27.00;51.70;;;;;;4881657;29;20320;-72
2021/08/17 21:02:34;;;;;;;28.45;17.85;;;26.90;51.70;;;;;;4882042;29;20071;-72
2021/08/17 21:05:00;;;;;;;29.20;17.75;;;26.90;51.90;;;;;;4882062;29;20390;-71
2021/08/17 21:07:26;;;;;;;31.83;18.83;;;26.80;52.00;;;;;;4881451;29;20038;-73
2021/08/17 21:09:52;;;;;;;24.77;15.15;;;26.80;52.10;;;;;;4880330;29;20029;-71
2021/08/17 21:12:18;;;;;;;20.48;13.57;;;26.70;52.20;;;;;;4881551;29;20029;-71
2021/08/17 21:14:44;;;;;;;19.60;13.38;;;26.70;52.30;;;;;;4881373;29;20043;-72
2021/08/17 21:17:10;;;;;;;21.90;13.02;;;26.70;52.20;;;;;;4881357;29;20085;-71
2021/08/17 21:19:36;;;;;;;21.42;13.20;;;26.70;52.20;;;;;;4881342;29;20085;-72
2021/08/17 21:22:03;;;;;;;22.80;13.38;;;26.70;52.00;;;;;;4881346;29;20088;-71
2021/08/17 21:24:29;;;;;;;29.13;14.57;;;26.70;52.00;;;;;;4881459;29;20028;-71
2021/08/17 21:26:55;;;;;;;23.05;15.05;;;26.80;52.00;;;;;;4881226;29;20033;-72
2021/08/17 21:29:21;;;;;;;28.90;16.75;;;26.80;52.30;;;;;;4881474;29;20037;-71
2021/08/17 21:31:46;;;;;;;30.27;17.75;;;26.70;52.30;;;;;;4880939;29;20080;-72
2021/08/17 21:34:12;;;;;;;28.95;18.58;;;26.70;52.50;;;;;;4881683;29;20040;-71
2021/08/17 21:36:38;;;;;;;35.00;21.58;;;26.70;52.80;;;;;;4864240;29;20492;-71
2021/08/17 21:39:04;;;;;;;54.17;27.58;;;26.70;53.00;;;;;;4881127;29;20033;-71
2021/08/17 21:41:30;;;;;;;63.63;33.10;;;26.70;53.20;;;;;;4880978;29;20108;-71
2021/08/17 21:43:55;;;;;;;43.67;26.50;;;26.60;53.20;;;;;;4864086;29;20458;-72
2021/08/17 21:46:21;;;;;;;44.97;25.23;;;26.60;53.30;;;;;;4880640;29;20039;-72
2021/08/17 21:48:49;;;;;;;36.90;23.58;;;26.60;53.40;;;;;;4881379;29;20153;-72
2021/08/17 21:51:15;;;;;;;30.48;18.52;;;26.60;53.50;;;;;;4880871;29;20115;-73
2021/08/17 21:53:40;;;;;;;33.03;20.92;;;26.60;53.40;;;;;;4880893;29;20155;-71
2021/08/17 21:56:06;;;;;;;37.90;20.55;;;26.50;53.40;;;;;;4880394;29;20511;-72
2021/08/17 21:58:34;;;;;;;33.75;21.23;;;26.50;53.40;;;;;;4880612;29;20359;-71
2021/08/17 22:01:00;;;;;;;28.45;18.88;;;26.50;53.50;;;;;;4864483;29;20051;-71
2021/08/17 22:03:25;;;;;;;35.30;23.48;;;26.40;53.50;;;;;;4880584;29;20474;-71
2021/08/17 22:05:51;;;;;;;38.22;21.63;;;26.40;53.60;;;;;;4880511;29;20036;-71
2021/08/17 22:08:17;;;;;;;30.42;18.90;;;26.40;53.70;;;;;;4880433;29;20112;-72
2021/08/17 22:10:43;;;;;;;32.33;19.85;;;26.30;53.70;;;;;;4880334;29;20040;-71
2021/08/17 22:13:09;;;;;;;29.15;17.90;;;26.30;53.80;;;;;;4879968;29;20081;-71
2021/08/17 22:15:35;;;;;;;28.80;17.08;;;26.30;53.90;;;;;;4880425;29;20067;-72
2021/08/17 22:18:01;;;;;;;28.88;17.65;;;26.30;54.00;;;;;;4863843;29;20048;-71
2021/08/17 22:20:27;;;;;;;30.13;17.90;;;26.20;54.10;;;;;;4863513;29;20153;-72
2021/08/17 22:22:53;;;;;;;28.65;17.88;;;26.10;54.30;;;;;;4880204;29;20132;-71
2021/08/17 22:25:20;;;;;;;27.17;18.40;;;26.10;54.50;;;;;;4880201;29;20044;-71
2021/08/17 22:27:46;;;;;;;29.70;17.65;;;26.00;54.60;;;;;;4880157;29;20039;-72
2021/08/17 22:30:16;;;;;;;29.20;18.92;;;25.90;54.80;;;;;;4880089;29;20029;-71
2021/08/17 22:32:42;;;;;;;32.03;20.80;;;25.80;54.90;;;;;;4879886;29;20033;-71
2021/08/17 22:35:08;;;;;;;35.55;21.63;;;25.70;54.90;;;;;;4880021;29;20043;-71
2021/08/17 22:37:34;;;;;;;43.58;25.33;;;25.70;55.10;;;;;;4880005;29;20492;-71
2021/08/17 22:40:02;;;;;;;38.10;23.05;;;25.60;55.20;;;;;;4880224;29;20033;-71
2021/08/17 22:42:27;;;;;;;37.55;24.60;;;25.60;55.40;;;;;;4879478;29;20037;-72
2021/08/17 22:44:54;;;;;;;36.17;22.63;;;25.50;55.60;;;;;;4880049;29;20399;-71
2021/08/17 22:47:19;;;;;;;36.90;21.65;;;25.50;55.90;;;;;;4880008;29;20119;-71
2021/08/17 22:49:45;;;;;;;36.20;22.27;;;25.40;56.20;;;;;;4880250;29;20029;-71
2021/08/17 22:52:11;;;;;;;36.95;21.75;;;25.40;56.50;;;;;;4879931;29;20031;-71
2021/08/17 22:54:37;;;;;;;43.92;24.80;;;25.40;56.60;;;;;;4879853;29;20029;-71
2021/08/17 22:57:04;;;;;;;46.40;25.40;;;25.40;56.70;;;;;;4863091;29;20033;-71
2021/08/17 22:59:30;;;;;;;49.13;25.83;;;25.40;56.80;;;;;;4880116;29;20430;-71
2021/08/17 23:01:55;;;;;;;43.17;26.98;;;25.30;56.80;;;;;;4863101;29;20037;-71
2021/08/17 23:04:21;;;;;;;38.78;23.75;;;25.20;57.10;;;;;;4879791;29;20040;-71
2021/08/17 23:06:47;;;;;;;36.20;23.33;;;25.20;57.40;;;;;;4879766;29;20072;-71
2021/08/17 23:09:13;;;;;;;41.90;25.27;;;25.20;57.80;;;;;;4879521;29;20033;-71
2021/08/17 23:11:38;;;;;;;44.92;25.25;;;25.10;57.90;;;;;;4879753;29;20036;-70
2021/08/17 23:14:05;;;;;;;46.83;26.42;;;25.10;58.10;;;;;;4880328;29;20060;-71
2021/08/17 23:16:30;;;;;;;42.83;26.98;;;25.10;58.10;;;;;;4879647;29;20044;-71
2021/08/17 23:18:56;;;;;;;38.55;24.58;;;25.00;58.20;;;;;;4879992;29;20029;-71
2021/08/17 23:21:22;;;;;;;39.97;24.77;;;24.90;58.50;;;;;;4879676;29;20028;-71
2021/08/17 23:23:48;;;;;;;45.33;27.48;;;24.90;58.80;;;;;;4879558;29;20457;-71
2021/08/17 23:26:17;;;;;;;47.03;26.02;;;24.80;58.90;;;;;;4863113;29;20044;-71
2021/08/17 23:28:47;;;;;;;50.63;28.02;;;24.80;59.00;;;;;;4879598;29;20033;-72
2021/08/17 23:31:14;;;;;;;42.35;24.60;;;24.80;59.20;;;;;;4879795;29;20037;-71
2021/08/17 23:33:47;;;;;;;41.10;25.73;;;24.80;59.40;;;;;;4879772;29;20037;-71
2021/08/17 23:36:13;;;;;;;42.28;25.33;;;24.70;59.60;;;;;;4879236;29;20550;-72
2021/08/17 23:38:39;;;;;;;38.38;25.90;;;24.70;59.60;;;;;;4879696;29;20029;-71
2021/08/17 23:41:06;;;;;;;41.92;26.00;;;24.70;59.70;;;;;;4879686;29;20025;-71
2021/08/17 23:43:32;;;;;;;48.55;31.13;;;24.70;59.80;;;;;;4879749;29;20101;-72
2021/08/17 23:45:58;;;;;;;52.03;31.83;;;24.70;59.70;;;;;;4879179;29;20037;-71
2021/08/17 23:48:25;;;;;;;49.35;31.08;;;24.60;59.80;;;;;;4861984;29;20122;-71
2021/08/17 23:50:51;;;;;;;52.88;31.95;;;24.50;59.90;;;;;;4879668;29;20037;-71
2021/08/17 23:53:19;;;;;;;44.35;26.80;;;24.50;60.10;;;;;;4879406;29;20037;-71
2021/08/17 23:55:45;;;;;;;44.95;25.50;;;24.40;60.40;;;;;;4882276;29;20073;-71
2021/08/17 23:58:12;;;;;;;41.50;25.42;;;24.40;60.70;;;;;;4882852;29;20029;-71
